Overton RPC :: 200A - Oak Field, TN

liberation: 2020-10-25  10:30     latitude: 35.682108     longitude: -88.771665 30 birds
# LOFT PRING MILES ARRIVAL SPEED ToWin
1 LET IT GO LOFT IF20-ORP-0112 223.954 2020-10-25 18:01:45.472 872.500 00:00:00
2 LET IT GO LOFT IF20-ORP-0122 223.954 2020-10-25 18:02:17.689 871.464 00:00:32
3 LET IT GO LOFT IF20-VALH-0092 223.954 2020-10-25 18:02:20.760 871.366 00:00:35
4 VALHALLA LOFTS IF20-VALH-0093 200.91 2020-10-25 17:45:42.058 811.571 00:30:26
5 VALHALLA LOFTS IF20-VALH-0020 200.91 2020-10-25 17:46:34.721 809.940 00:31:18
6 VALHALLA LOFTS IF20-VALH-0087 200.91 2020-10-25 17:46:40.060 809.774 00:31:24
7 VALHALLA LOFTS IF20-VALH-0077 200.91 2020-10-25 17:53:42.988 796.911 00:38:26
8 VALHALLA LOFTS IF20-ORP-0017 200.91 2020-10-25 17:54:15.011 795.953 00:38:59
9 VALHALLA LOFTS IF20-VALH-0024 200.91 2020-10-26 09:24:36.270 544.461 04:04:11
10 VALHALLA LOFTS IF20-VALH-0042 200.91 2020-10-26 09:38:00.030 533.457 04:17:35
11 VALHALLA LOFTS IF20-VALH-0039 200.91 2020-10-26 10:03:34.336 513.642 04:43:09
12 VALHALLA LOFTS IF20-VALH-0066 200.91 2020-10-26 10:03:40.201 513.569 04:43:15
13 VALHALLA LOFTS IF20-VALH-0096 200.91 2020-10-26 10:56:01.355 477.278 05:35:36
14 LET IT GO LOFT IF20-ORP-0126 223.954 2020-10-26 14:38:48.328 409.025 08:31:54
15 VALHALLA LOFTS IF20-VALH-0013 200.91 2020-10-26 16:52:46.144 322.154 11:32:21
16 VALHALLA LOFTS IF20-VALH-0025 200.91 2020-10-26 16:53:03.213 322.070 11:32:38
17 VALHALLA LOFTS IF20-VALH-0009 200.91 2020-10-27 08:01:39.611 276.404 14:34:01
18 VALHALLA LOFTS IF20-VALH-0007 200.91 2020-10-27 08:43:57.194 267.559 15:16:19
19 VALHALLA LOFTS IF20-VALH-0088 200.91 2020-10-27 14:13:56.408 214.100 20:46:18
LET IT GO LOFT IF20-ORP-0106 0 0000-00-00 00:00:00.000 0.000 00:00:00
LET IT GO LOFT IF20-ORP-0134 0 0000-00-00 00:00:00.000 0.000 00:00:00
VALHALLA LOFTS IF20-ORP-0021 0 0000-00-00 00:00:00.000 0.000 00:00:00
VALHALLA LOFTS IF20-ORP-0022 0 0000-00-00 00:00:00.000 0.000 00:00:00
VALHALLA LOFTS IF20-VALH-0005 0 0000-00-00 00:00:00.000 0.000 00:00:00
VALHALLA LOFTS IF20-VALH-0018 0 0000-00-00 00:00:00.000 0.000 00:00:00
VALHALLA LOFTS IF20-VALH-0022 0 0000-00-00 00:00:00.000 0.000 00:00:00
VALHALLA LOFTS IF20-VALH-0027 0 0000-00-00 00:00:00.000 0.000 00:00:00
VALHALLA LOFTS IF20-VALH-0040 0 0000-00-00 00:00:00.000 0.000 00:00:00
VALHALLA LOFTS IF20-VALH-0089 0 0000-00-00 00:00:00.000 0.000 00:00:00
VALHALLA LOFTS IF20-VALH-0097 0 0000-00-00 00:00:00.000 0.000 00:00:00